createdAt,value
2017-11-08T00:00:20.258Z,22.2
2017-11-08T00:01:28.343Z,22.2
2017-11-08T00:02:36.433Z,22.3
2017-11-08T00:03:44.524Z,22.3
2017-11-08T00:04:52.608Z,22.3
2017-11-08T00:06:00.690Z,22.4
2017-11-08T00:07:08.777Z,22.4
2017-11-08T00:08:16.861Z,22.4
2017-11-08T00:09:24.951Z,22.4
2017-11-08T00:10:33.045Z,22.5
2017-11-08T00:11:41.124Z,22.5
2017-11-08T00:12:49.211Z,22.5
2017-11-08T00:13:57.297Z,22.6
2017-11-08T00:15:05.396Z,22.5
2017-11-08T00:16:13.466Z,22.6
2017-11-08T00:17:21.553Z,22.5
2017-11-08T00:18:29.641Z,22.6
2017-11-08T00:19:37.733Z,22.6
2017-11-08T00:20:45.814Z,22.5
2017-11-08T00:21:53.906Z,22.6
2017-11-08T00:23:02.008Z,22.6
2017-11-08T00:24:10.095Z,22.6
2017-11-08T00:25:18.192Z,22.6
2017-11-08T00:26:26.271Z,22.6
2017-11-08T00:27:34.367Z,22.6
2017-11-08T00:28:42.451Z,22.6
2017-11-08T00:29:50.540Z,22.7
2017-11-08T00:30:58.623Z,22.6
2017-11-08T00:32:06.712Z,22.6
2017-11-08T00:33:14.801Z,22.6
2017-11-08T00:34:22.887Z,22.6
2017-11-08T00:35:30.976Z,22.7
2017-11-08T00:36:39.061Z,22.8
2017-11-08T00:37:47.145Z,22.8
2017-11-08T00:38:55.234Z,22.7
2017-11-08T00:40:03.322Z,22.8
2017-11-08T00:41:11.426Z,22.8
2017-11-08T00:42:19.493Z,22.8
2017-11-08T00:43:27.581Z,22.7
2017-11-08T00:44:35.716Z,22.8
2017-11-08T00:45:43.802Z,22.8
2017-11-08T00:46:51.886Z,22.8
2017-11-08T00:47:59.978Z,22.8
2017-11-08T00:49:08.062Z,22.8
2017-11-08T00:50:16.150Z,22.8
2017-11-08T00:51:24.238Z,22.8
2017-11-08T00:52:32.323Z,22.8
2017-11-08T00:53:40.414Z,22.8
2017-11-08T00:54:48.497Z,22.9
2017-11-08T00:55:56.582Z,22.9
2017-11-08T00:57:04.671Z,22.9
2017-11-08T00:58:12.764Z,22.9
2017-11-08T00:59:20.850Z,22.9
2017-11-08T01:00:29.029Z,22.9
2017-11-08T01:01:37.116Z,22.8
2017-11-08T01:02:45.200Z,22.9
2017-11-08T01:03:53.285Z,22.8
2017-11-08T01:05:02.655Z,23.0
2017-11-08T01:06:10.720Z,23.0
2017-11-08T01:07:18.797Z,22.9
2017-11-08T01:08:26.908Z,22.9
2017-11-08T01:09:34.982Z,22.9
2017-11-08T01:10:43.090Z,22.9
2017-11-08T01:11:51.162Z,22.9
2017-11-08T01:12:59.250Z,23.0
2017-11-08T01:14:07.342Z,22.9
2017-11-08T01:15:15.428Z,22.9
2017-11-08T01:16:23.525Z,22.9
2017-11-08T01:17:31.607Z,23.0
2017-11-08T01:18:39.694Z,22.9
2017-11-08T01:19:47.783Z,23.0
2017-11-08T01:20:55.870Z,23.0
2017-11-08T01:22:03.955Z,23.1
2017-11-08T01:23:12.045Z,23.0
2017-11-08T01:24:20.131Z,23.0
2017-11-08T01:25:28.216Z,22.9
2017-11-08T01:26:36.309Z,22.9
2017-11-08T01:27:44.390Z,22.9
2017-11-08T01:28:52.480Z,23.0
2017-11-08T01:30:00.569Z,23.0
2017-11-08T01:31:08.654Z,23.0
2017-11-08T01:32:16.743Z,22.9
2017-11-08T01:33:24.827Z,23.0
2017-11-08T01:34:32.914Z,23.0
2017-11-08T01:35:41.030Z,23.0
2017-11-08T01:36:49.090Z,22.9
2017-11-08T01:37:57.178Z,23.0
2017-11-08T01:39:05.264Z,22.9
2017-11-08T01:40:13.371Z,23.0
2017-11-08T01:41:21.467Z,23.0
2017-11-08T01:42:29.544Z,22.9
2017-11-08T01:43:37.631Z,23.0
2017-11-08T01:44:45.721Z,22.9
2017-11-08T01:45:53.806Z,22.9
2017-11-08T01:47:01.894Z,23.0
2017-11-08T01:48:09.981Z,22.9
2017-11-08T01:49:18.071Z,23.0
2017-11-08T01:50:26.163Z,23.0
2017-11-08T01:51:34.241Z,23.0
2017-11-08T01:52:42.338Z,22.9
2017-11-08T01:53:50.415Z,23.0
2017-11-08T01:54:58.504Z,23.0
2017-11-08T01:56:06.592Z,22.9
2017-11-08T01:57:14.684Z,23.0
2017-11-08T01:58:22.773Z,22.9
2017-11-08T01:59:30.859Z,23.0
2017-11-08T02:00:38.959Z,22.9
2017-11-08T02:01:47.034Z,22.8
2017-11-08T02:02:55.121Z,23.0
2017-11-08T02:04:03.222Z,23.0
2017-11-08T02:05:11.305Z,23.0
2017-11-08T02:06:19.392Z,22.9
2017-11-08T02:07:27.480Z,22.9
2017-11-08T02:08:35.570Z,22.9
2017-11-08T02:09:43.655Z,22.9
2017-11-08T02:10:51.745Z,22.9
2017-11-08T02:11:59.837Z,22.9
2017-11-08T02:13:07.919Z,22.9
2017-11-08T02:14:16.006Z,22.8
2017-11-08T02:15:24.089Z,22.9
2017-11-08T02:16:32.176Z,22.9
2017-11-08T02:17:40.264Z,22.8
2017-11-08T02:18:48.351Z,22.9
2017-11-08T02:19:56.438Z,22.9
2017-11-08T02:21:04.526Z,22.9
2017-11-08T02:22:12.777Z,22.8
2017-11-08T02:23:20.872Z,22.9
2017-11-08T02:24:28.968Z,22.8
2017-11-08T02:25:37.043Z,22.8
2017-11-08T02:26:45.129Z,22.8
2017-11-08T02:27:53.223Z,22.8
2017-11-08T02:29:01.305Z,22.8
2017-11-08T02:30:09.394Z,22.8
2017-11-08T02:31:17.477Z,22.8
2017-11-08T02:32:25.573Z,22.8
2017-11-08T02:33:33.656Z,22.8
2017-11-08T02:34:41.746Z,22.8
2017-11-08T02:35:49.839Z,22.8
2017-11-08T02:36:57.920Z,22.8
2017-11-08T02:38:06.013Z,22.7
2017-11-08T02:39:14.094Z,22.8
2017-11-08T02:40:22.180Z,22.8
2017-11-08T02:41:30.274Z,22.8
2017-11-08T02:42:38.360Z,22.7
2017-11-08T02:43:46.447Z,22.8
2017-11-08T02:44:54.536Z,22.8
2017-11-08T02:46:02.630Z,22.8
2017-11-08T02:47:10.707Z,22.8
2017-11-08T02:48:18.795Z,22.8
2017-11-08T02:49:26.900Z,22.7
2017-11-08T02:50:34.974Z,22.6
2017-11-08T02:51:43.062Z,22.6
2017-11-08T02:52:51.143Z,22.6
2017-11-08T02:53:59.231Z,22.7
2017-11-08T02:55:07.324Z,22.6
2017-11-08T02:56:15.407Z,22.6
2017-11-08T02:57:23.491Z,22.7
2017-11-08T02:58:31.583Z,22.6
2017-11-08T02:59:39.670Z,22.7
2017-11-08T03:00:47.771Z,22.6
2017-11-08T03:01:55.840Z,22.6
2017-11-08T03:03:03.926Z,22.6
2017-11-08T03:04:12.014Z,22.6
2017-11-08T03:05:20.101Z,22.6
2017-11-08T03:06:28.210Z,22.6
2017-11-08T03:07:36.275Z,22.6
2017-11-08T03:08:44.370Z,22.6
2017-11-08T03:09:52.450Z,22.6
2017-11-08T03:11:00.537Z,22.6
2017-11-08T03:12:08.632Z,22.5
2017-11-08T03:13:16.722Z,22.6
2017-11-08T03:14:24.833Z,22.6
2017-11-08T03:15:32.899Z,22.6
2017-11-08T03:16:40.980Z,22.6
2017-11-08T03:17:49.068Z,22.5
2017-11-08T03:18:57.155Z,22.5
2017-11-08T03:20:05.243Z,22.5
2017-11-08T03:21:13.330Z,22.5
2017-11-08T03:22:21.416Z,22.5
2017-11-08T03:23:29.505Z,22.6
2017-11-08T03:24:37.592Z,22.5
2017-11-08T03:25:45.678Z,22.6
2017-11-08T03:26:53.775Z,22.6
2017-11-08T03:28:01.864Z,22.5
2017-11-08T03:29:09.949Z,22.5
2017-11-08T03:30:18.038Z,22.4
2017-11-08T03:31:26.120Z,22.4
2017-11-08T03:32:34.211Z,22.5
2017-11-08T03:33:42.305Z,22.3
2017-11-08T03:34:50.385Z,22.4
2017-11-08T03:35:58.472Z,22.4
2017-11-08T03:37:06.559Z,22.4
2017-11-08T03:38:14.646Z,22.4
2017-11-08T03:39:22.731Z,22.3
2017-11-08T03:40:30.819Z,22.4
2017-11-08T03:41:38.909Z,22.3
2017-11-08T03:42:46.993Z,22.3
2017-11-08T03:43:55.081Z,22.3
2017-11-08T03:45:03.177Z,22.3
2017-11-08T03:46:11.258Z,22.3
2017-11-08T03:47:19.341Z,22.3
2017-11-08T03:48:27.428Z,22.2
2017-11-08T03:49:35.531Z,22.3
2017-11-08T03:50:43.602Z,22.3
2017-11-08T03:51:51.686Z,22.3
2017-11-08T03:52:59.775Z,22.3
2017-11-08T03:54:07.861Z,22.2
2017-11-08T03:55:15.949Z,22.2
2017-11-08T03:56:24.035Z,22.2
2017-11-08T03:57:32.122Z,22.2
2017-11-08T03:58:40.253Z,22.2
2017-11-08T03:59:48.341Z,22.2
2017-11-08T04:00:56.428Z,22.2
2017-11-08T04:02:04.515Z,22.1
2017-11-08T04:03:12.601Z,22.1
2017-11-08T04:04:20.693Z,22.2
2017-11-08T04:05:28.776Z,22.0
2017-11-08T04:06:36.871Z,22.2
2017-11-08T04:07:44.948Z,22.1
2017-11-08T04:08:53.036Z,22.2
2017-11-08T04:10:01.120Z,22.1
2017-11-08T04:11:09.207Z,22.1
2017-11-08T04:12:17.295Z,22.0
2017-11-08T04:13:25.382Z,22.1
2017-11-08T04:14:33.467Z,22.0
2017-11-08T04:15:41.558Z,22.0
2017-11-08T04:16:49.643Z,22.1
2017-11-08T04:17:57.727Z,22.1
2017-11-08T04:19:05.819Z,22.0
2017-11-08T04:20:13.902Z,21.9
2017-11-08T04:21:21.988Z,22.0
2017-11-08T04:22:30.082Z,22.0
2017-11-08T04:23:38.160Z,21.9
2017-11-08T04:24:46.249Z,22.0
2017-11-08T04:25:54.335Z,21.9
2017-11-08T04:27:02.423Z,21.9
2017-11-08T04:28:10.508Z,21.9
2017-11-08T04:29:18.594Z,21.9
2017-11-08T04:30:26.682Z,21.9
2017-11-08T04:31:34.768Z,21.9
2017-11-08T04:32:42.856Z,21.9
2017-11-08T04:33:50.943Z,21.8
2017-11-08T04:34:59.028Z,21.9
2017-11-08T04:36:07.116Z,21.8
2017-11-08T04:37:15.202Z,21.8
2017-11-08T04:38:23.294Z,21.8
2017-11-08T04:39:31.577Z,21.8
2017-11-08T04:40:39.674Z,21.8
2017-11-08T04:41:47.768Z,21.8
2017-11-08T04:42:55.848Z,21.8
2017-11-08T04:44:03.939Z,21.8
2017-11-08T04:45:12.026Z,21.7
2017-11-08T04:46:20.109Z,21.7
2017-11-08T04:47:28.193Z,21.8
2017-11-08T04:48:36.279Z,21.8
2017-11-08T04:49:44.370Z,21.7
2017-11-08T04:50:52.452Z,21.7
2017-11-08T04:52:00.539Z,21.6
2017-11-08T04:53:08.625Z,21.6
2017-11-08T04:54:16.713Z,21.7
2017-11-08T04:55:24.800Z,21.6
2017-11-08T04:56:32.886Z,21.6
2017-11-08T04:57:40.978Z,21.6
2017-11-08T04:58:49.059Z,21.8
2017-11-08T04:59:57.144Z,21.6
2017-11-08T05:01:05.236Z,21.6
2017-11-08T05:02:13.323Z,21.6
2017-11-08T05:03:21.402Z,21.7
2017-11-08T05:04:29.490Z,21.6
2017-11-08T05:05:37.591Z,21.6
2017-11-08T05:06:45.661Z,21.6
2017-11-08T05:07:53.747Z,21.7
2017-11-08T05:09:01.844Z,21.6
2017-11-08T05:10:09.927Z,21.6
2017-11-08T05:11:18.033Z,21.6
2017-11-08T05:12:26.097Z,21.5
2017-11-08T05:13:34.182Z,21.5
2017-11-08T05:14:42.268Z,21.6
2017-11-08T05:15:50.354Z,21.5
2017-11-08T05:16:58.440Z,21.5
2017-11-08T05:18:06.523Z,21.4
2017-11-08T05:19:14.610Z,21.4
2017-11-08T05:20:22.698Z,21.4
2017-11-08T05:21:30.787Z,21.4
2017-11-08T05:22:38.872Z,21.4
2017-11-08T05:23:46.964Z,21.4
2017-11-08T05:24:55.044Z,21.4
2017-11-08T05:26:03.128Z,21.4
2017-11-08T05:27:11.216Z,21.4
2017-11-08T05:28:19.300Z,21.4
2017-11-08T05:29:27.387Z,21.3
2017-11-08T05:30:35.474Z,21.4
2017-11-08T05:31:43.642Z,21.3
2017-11-08T05:32:51.648Z,21.3
2017-11-08T05:33:59.732Z,21.3
2017-11-08T05:35:07.819Z,21.3
2017-11-08T05:36:15.903Z,21.3
2017-11-08T05:37:23.993Z,21.3
2017-11-08T05:38:32.075Z,21.3
2017-11-08T05:39:40.165Z,21.3
2017-11-08T05:40:48.245Z,21.3
2017-11-08T05:41:56.333Z,21.2
2017-11-08T05:43:04.418Z,21.3
2017-11-08T05:44:12.504Z,21.3
2017-11-08T05:45:20.593Z,21.3
2017-11-08T05:46:28.675Z,21.2
2017-11-08T05:47:36.761Z,21.1
2017-11-08T05:48:44.846Z,21.2
2017-11-08T05:49:52.934Z,21.2
2017-11-08T05:51:01.019Z,21.2
2017-11-08T05:52:09.104Z,21.1
2017-11-08T05:53:17.193Z,21.1
2017-11-08T05:54:25.277Z,21.0
2017-11-08T05:55:33.363Z,21.0
2017-11-08T05:56:41.448Z,21.1
2017-11-08T05:57:49.530Z,21.1
2017-11-08T05:58:57.618Z,21.1
2017-11-08T06:00:05.705Z,21.1
2017-11-08T06:01:13.793Z,21.0
2017-11-08T06:02:21.876Z,21.1
2017-11-08T06:03:29.962Z,21.0
2017-11-08T06:04:38.061Z,21.0
2017-11-08T06:05:46.146Z,21.0
2017-11-08T06:06:54.231Z,21.0
2017-11-08T06:08:02.328Z,21.0
2017-11-08T06:09:10.403Z,21.0
2017-11-08T06:10:18.490Z,21.0
2017-11-08T06:11:26.578Z,20.9
2017-11-08T06:12:34.660Z,20.9
2017-11-08T06:13:42.924Z,20.9
2017-11-08T06:14:50.833Z,20.9
2017-11-08T06:15:58.933Z,20.9
2017-11-08T06:17:07.022Z,20.9
2017-11-08T06:18:15.150Z,20.9
2017-11-08T06:19:23.174Z,20.8
2017-11-08T06:20:33.659Z,20.9
2017-11-08T06:21:39.349Z,20.9
2017-11-08T06:22:47.429Z,20.9
2017-11-08T06:23:55.515Z,20.9
2017-11-08T06:25:03.608Z,20.9
2017-11-08T06:26:11.687Z,20.8
2017-11-08T06:27:19.773Z,20.8
2017-11-08T06:28:27.859Z,20.8
2017-11-08T06:29:35.948Z,20.8
2017-11-08T06:30:44.030Z,20.9
2017-11-08T06:31:52.114Z,20.7
2017-11-08T06:33:00.208Z,20.7
2017-11-08T06:34:08.290Z,20.7
2017-11-08T06:35:16.375Z,20.7
2017-11-08T06:36:24.460Z,20.7
2017-11-08T06:37:32.546Z,20.7
2017-11-08T06:38:40.640Z,20.7
2017-11-08T06:39:48.731Z,20.7
2017-11-08T06:40:56.803Z,20.7
2017-11-08T06:42:04.889Z,20.7
2017-11-08T06:43:12.982Z,20.6
2017-11-08T06:44:21.066Z,20.7
2017-11-08T06:45:29.154Z,20.6
2017-11-08T06:46:37.237Z,20.6
2017-11-08T06:47:45.333Z,20.6
2017-11-08T06:48:53.415Z,20.6
2017-11-08T06:50:01.512Z,20.6
2017-11-08T06:51:09.598Z,20.6
2017-11-08T06:52:17.687Z,20.5
2017-11-08T06:53:25.771Z,20.4
2017-11-08T06:54:33.863Z,20.5
2017-11-08T06:55:41.939Z,20.5
2017-11-08T06:56:50.022Z,20.5
2017-11-08T06:57:58.110Z,20.5
2017-11-08T06:59:06.195Z,20.5
2017-11-08T07:00:14.280Z,20.5
2017-11-08T07:01:22.366Z,20.5
2017-11-08T07:02:30.452Z,20.3
2017-11-08T07:03:38.539Z,20.5
2017-11-08T07:04:46.624Z,20.5
2017-11-08T07:05:54.708Z,20.5
2017-11-08T07:07:02.795Z,20.5
2017-11-08T07:08:10.882Z,20.5
2017-11-08T07:09:18.964Z,20.3
2017-11-08T07:10:27.054Z,20.3
2017-11-08T07:11:35.135Z,20.5
2017-11-08T07:12:43.226Z,20.3
2017-11-08T07:13:51.308Z,20.4
2017-11-08T07:14:59.397Z,20.4
2017-11-08T07:16:07.480Z,20.4
2017-11-08T07:17:15.561Z,20.4
2017-11-08T07:18:23.644Z,20.3
2017-11-08T07:19:31.729Z,20.3
2017-11-08T07:20:39.815Z,20.3
2017-11-08T07:21:47.903Z,20.3
2017-11-08T07:22:55.988Z,20.3
2017-11-08T07:24:04.073Z,20.3
2017-11-08T07:25:12.160Z,20.3
2017-11-08T07:26:20.252Z,20.2
2017-11-08T07:27:28.337Z,20.3
2017-11-08T07:28:36.423Z,20.2
2017-11-08T07:29:44.507Z,20.3
2017-11-08T07:30:52.611Z,20.2
2017-11-08T07:32:00.678Z,20.2
2017-11-08T07:33:08.762Z,20.2
2017-11-08T07:34:16.874Z,20.2
2017-11-08T07:35:24.933Z,20.1
2017-11-08T07:36:33.031Z,20.2
2017-11-08T07:37:41.102Z,20.1
2017-11-08T07:38:49.191Z,20.1
2017-11-08T07:39:57.274Z,20.1
2017-11-08T07:41:05.396Z,20.2
2017-11-08T07:42:13.480Z,20.1
2017-11-08T07:43:21.564Z,20.1
2017-11-08T07:44:29.649Z,20.1
2017-11-08T07:45:37.734Z,20.1
2017-11-08T07:46:45.818Z,20.1
2017-11-08T07:47:53.904Z,20.1
2017-11-08T07:49:01.990Z,20.0
2017-11-08T07:50:10.076Z,20.0
2017-11-08T07:51:18.224Z,20.0
2017-11-08T07:52:26.249Z,20.1
2017-11-08T07:53:34.330Z,20.0
2017-11-08T07:54:42.418Z,20.0
2017-11-08T07:55:50.500Z,19.9
2017-11-08T07:56:58.592Z,20.0
2017-11-08T07:58:06.699Z,20.0
2017-11-08T07:59:14.760Z,20.0
2017-11-08T08:00:22.845Z,20.0
2017-11-08T08:01:30.930Z,19.9
2017-11-08T08:02:39.015Z,20.0
2017-11-08T08:03:47.101Z,19.9
2017-11-08T08:04:55.191Z,19.9
2017-11-08T08:06:03.268Z,19.9
2017-11-08T08:07:11.354Z,19.9
2017-11-08T08:08:19.439Z,19.9
2017-11-08T08:09:27.525Z,19.8
2017-11-08T08:10:35.611Z,19.9
2017-11-08T08:11:43.696Z,19.8
2017-11-08T08:12:51.786Z,19.8
2017-11-08T08:13:59.945Z,19.8
2017-11-08T08:15:07.948Z,19.7
2017-11-08T08:16:16.035Z,19.7
2017-11-08T08:17:24.137Z,19.8
2017-11-08T08:18:32.202Z,19.7
2017-11-08T08:19:40.288Z,19.7
2017-11-08T08:20:48.373Z,19.8
2017-11-08T08:21:56.459Z,19.7
2017-11-08T08:23:04.547Z,19.8
2017-11-08T08:24:12.627Z,19.7
2017-11-08T08:25:20.717Z,19.8
2017-11-08T08:26:28.807Z,19.6
2017-11-08T08:27:36.893Z,19.7
2017-11-08T08:28:44.976Z,19.7
2017-11-08T08:29:53.063Z,19.7
2017-11-08T08:31:01.145Z,19.7
2017-11-08T08:32:09.229Z,19.7
2017-11-08T08:33:17.312Z,19.7
2017-11-08T08:34:25.397Z,19.7
2017-11-08T08:35:33.483Z,19.7
2017-11-08T08:36:41.578Z,19.7
2017-11-08T08:37:49.680Z,19.8
2017-11-08T08:38:57.747Z,19.7
2017-11-08T08:40:05.832Z,19.7
2017-11-08T08:41:13.916Z,19.7
2017-11-08T08:42:22.001Z,19.6
2017-11-08T08:43:30.085Z,19.6
2017-11-08T08:44:38.171Z,19.6
2017-11-08T08:45:46.255Z,19.6
2017-11-08T08:46:54.359Z,19.6
2017-11-08T08:48:02.426Z,19.6
2017-11-08T08:49:10.521Z,19.6
2017-11-08T08:50:18.596Z,19.5
2017-11-08T08:51:26.679Z,19.6
2017-11-08T08:52:34.764Z,19.5
2017-11-08T08:53:42.849Z,19.6
2017-11-08T08:54:50.936Z,19.6
2017-11-08T08:55:59.022Z,19.5
2017-11-08T08:57:07.107Z,19.4
2017-11-08T08:58:15.191Z,19.4
2017-11-08T08:59:23.318Z,19.5
2017-11-08T09:00:31.400Z,19.4
2017-11-08T09:01:39.484Z,19.5
2017-11-08T09:02:47.574Z,19.4
2017-11-08T09:03:55.820Z,19.4
2017-11-08T09:05:03.740Z,19.4
2017-11-08T09:06:11.824Z,19.5
2017-11-08T09:07:19.908Z,19.4
2017-11-08T09:08:27.991Z,19.5
2017-11-08T09:09:36.076Z,19.5
2017-11-08T09:10:44.162Z,19.4
2017-11-08T09:11:52.246Z,19.4
2017-11-08T09:13:00.331Z,19.5
2017-11-08T09:14:08.415Z,19.3
2017-11-08T09:15:16.500Z,19.4
2017-11-08T09:16:24.586Z,19.4
2017-11-08T09:17:32.669Z,19.2
2017-11-08T09:19:48.839Z,19.3
2017-11-08T09:20:56.923Z,19.3
2017-11-08T09:22:05.022Z,19.3
2017-11-08T09:23:13.095Z,19.2
2017-11-08T09:24:21.228Z,19.2
2017-11-08T09:25:29.261Z,19.3
2017-11-08T09:26:37.347Z,19.2
2017-11-08T09:27:45.432Z,19.2
2017-11-08T09:28:53.517Z,19.2
2017-11-08T09:30:01.601Z,19.2
2017-11-08T09:31:09.684Z,19.2
2017-11-08T09:32:17.768Z,19.1
2017-11-08T09:33:25.853Z,19.2
2017-11-08T09:34:33.940Z,19.2
2017-11-08T09:35:42.035Z,19.2
2017-11-08T09:36:50.109Z,19.1
2017-11-08T09:37:58.192Z,19.2
2017-11-08T09:39:06.286Z,19.1
2017-11-08T09:40:14.366Z,19.1
2017-11-08T09:41:22.454Z,19.1
2017-11-08T09:42:30.537Z,19.1
2017-11-08T09:43:38.624Z,19.2
2017-11-08T09:44:46.712Z,19.1
2017-11-08T09:45:54.790Z,19.2
2017-11-08T09:47:02.875Z,19.1
2017-11-08T09:48:10.968Z,19.1
2017-11-08T09:49:19.054Z,19.0
2017-11-08T09:50:27.159Z,19.1
2017-11-08T09:51:35.224Z,19.0
2017-11-08T09:52:43.315Z,19.1
2017-11-08T09:53:51.397Z,19.1
2017-11-08T09:54:59.484Z,19.1
2017-11-08T09:56:07.620Z,19.1
2017-11-08T09:57:15.655Z,18.9
2017-11-08T09:58:23.742Z,18.9
2017-11-08T09:59:31.840Z,19.0
2017-11-08T10:00:39.941Z,19.0
2017-11-08T10:01:48.032Z,18.9
2017-11-08T10:02:56.111Z,19.0
2017-11-08T10:04:04.248Z,19.0
2017-11-08T10:05:12.331Z,19.0
2017-11-08T10:06:20.417Z,18.9
2017-11-08T10:07:28.499Z,19.0
2017-11-08T10:08:36.586Z,18.9
2017-11-08T10:09:44.676Z,18.9
2017-11-08T10:10:52.797Z,19.0
2017-11-08T10:12:00.854Z,18.9
2017-11-08T10:13:08.940Z,18.9
2017-11-08T10:14:17.019Z,18.9
2017-11-08T10:15:25.105Z,18.9
2017-11-08T10:16:33.190Z,18.9
2017-11-08T10:17:41.274Z,18.8
2017-11-08T10:18:49.361Z,18.9
2017-11-08T10:19:57.446Z,18.8
2017-11-08T10:21:05.530Z,18.9
2017-11-08T10:22:13.624Z,18.8
2017-11-08T10:23:21.715Z,18.8
2017-11-08T10:24:29.800Z,18.8
2017-11-08T10:25:37.890Z,18.9
2017-11-08T10:26:45.970Z,18.8
2017-11-08T10:27:54.126Z,18.8
2017-11-08T10:29:02.142Z,18.8
2017-11-08T10:30:10.229Z,18.8
2017-11-08T10:31:18.311Z,18.8
2017-11-08T10:32:26.396Z,18.9
2017-11-08T10:33:34.482Z,18.7
2017-11-08T10:34:42.597Z,18.8
2017-11-08T10:35:50.681Z,18.7
2017-11-08T10:36:58.774Z,18.7
2017-11-08T10:38:06.857Z,18.7
2017-11-08T10:39:14.948Z,18.8
2017-11-08T10:40:23.035Z,18.7
2017-11-08T10:41:31.118Z,18.7
2017-11-08T10:42:39.170Z,18.7
2017-11-08T10:43:47.254Z,18.8
2017-11-08T10:44:55.337Z,18.7
2017-11-08T10:46:03.422Z,18.7
2017-11-08T10:47:11.508Z,18.7
2017-11-08T10:48:19.590Z,18.7
2017-11-08T10:49:27.674Z,18.7
2017-11-08T10:50:35.763Z,18.7
2017-11-08T10:51:43.845Z,18.7
2017-11-08T10:52:51.927Z,18.7
2017-11-08T10:54:00.011Z,18.6
2017-11-08T10:55:08.094Z,18.7
2017-11-08T10:56:16.179Z,18.7
2017-11-08T10:57:24.265Z,18.6
2017-11-08T10:58:32.348Z,18.6
2017-11-08T10:59:40.433Z,18.6
2017-11-08T11:00:48.516Z,18.6
2017-11-08T11:01:56.602Z,18.5
2017-11-08T11:03:04.685Z,18.6
2017-11-08T11:04:12.768Z,18.5
2017-11-08T11:05:20.854Z,18.6
2017-11-08T11:06:28.940Z,18.6
2017-11-08T11:07:37.026Z,18.5
2017-11-08T11:08:45.112Z,18.5
2017-11-08T11:09:53.193Z,18.5
2017-11-08T11:11:01.281Z,18.5
2017-11-08T11:12:09.380Z,18.5
2017-11-08T11:13:17.457Z,18.5
2017-11-08T11:14:25.545Z,18.6
2017-11-08T11:15:33.627Z,18.5
2017-11-08T11:16:41.710Z,18.5
2017-11-08T11:17:49.800Z,18.5
2017-11-08T11:18:57.881Z,18.5
2017-11-08T11:20:05.964Z,18.5
2017-11-08T11:21:14.047Z,18.4
2017-11-08T11:22:22.138Z,18.5
2017-11-08T11:23:30.228Z,18.4
2017-11-08T11:24:38.315Z,18.5
2017-11-08T11:25:46.403Z,18.4
2017-11-08T11:26:54.494Z,18.4
2017-11-08T11:28:02.574Z,18.4
2017-11-08T11:29:10.686Z,18.3
2017-11-08T11:30:18.755Z,18.3
2017-11-08T11:31:26.842Z,18.4
2017-11-08T11:32:34.925Z,18.3
2017-11-08T11:33:43.023Z,18.4
2017-11-08T11:34:51.095Z,18.3
2017-11-08T11:35:59.180Z,18.4
2017-11-08T11:37:07.264Z,18.3
2017-11-08T11:38:15.358Z,18.3
2017-11-08T11:39:23.441Z,18.3
2017-11-08T11:40:31.518Z,18.3
2017-11-08T11:41:39.604Z,18.3
2017-11-08T11:42:47.688Z,18.3
2017-11-08T11:43:55.771Z,18.2
2017-11-08T11:45:03.855Z,18.4
2017-11-08T11:46:11.956Z,18.3
2017-11-08T11:47:20.026Z,18.2
2017-11-08T11:48:28.109Z,18.2
2017-11-08T11:49:36.198Z,18.2
2017-11-08T11:50:44.281Z,18.3
2017-11-08T11:51:52.363Z,18.1
2017-11-08T11:53:00.487Z,18.2
2017-11-08T11:54:08.569Z,18.2
2017-11-08T11:55:16.662Z,18.2
2017-11-08T11:56:24.740Z,18.2
2017-11-08T11:57:32.835Z,18.2
2017-11-08T11:58:40.924Z,18.2
2017-11-08T11:59:49.006Z,18.2
2017-11-08T12:00:57.135Z,18.2
2017-11-08T12:02:05.213Z,18.2
2017-11-08T12:03:13.289Z,18.2
2017-11-08T12:04:21.370Z,18.2
2017-11-08T12:05:29.455Z,18.2
2017-11-08T12:06:37.539Z,18.2
2017-11-08T12:07:45.627Z,18.2
2017-11-08T12:08:53.708Z,18.2
2017-11-08T12:10:01.788Z,18.2
2017-11-08T12:11:09.877Z,18.1
2017-11-08T12:12:18.095Z,18.1
2017-11-08T12:13:26.178Z,18.1
2017-11-08T12:14:34.266Z,18.1
2017-11-08T12:15:42.352Z,18.1
2017-11-08T12:16:50.439Z,18.1
2017-11-08T12:17:58.519Z,18.1
2017-11-08T12:19:06.608Z,18.1
2017-11-08T12:20:14.688Z,18.1
2017-11-08T12:21:22.804Z,18.0
2017-11-08T12:22:30.894Z,18.1
2017-11-08T12:23:38.973Z,18.1
2017-11-08T12:24:47.056Z,18.0
2017-11-08T12:25:55.141Z,18.1
2017-11-08T12:27:03.225Z,18.0
2017-11-08T12:28:11.310Z,18.0
2017-11-08T12:29:19.400Z,18.0
2017-11-08T12:30:27.478Z,18.0
2017-11-08T12:31:35.563Z,18.0
2017-11-08T12:32:43.648Z,18.0
2017-11-08T12:33:51.732Z,18.1
2017-11-08T12:34:59.818Z,18.1
2017-11-08T12:36:07.898Z,17.9
2017-11-08T12:37:15.981Z,17.9
2017-11-08T12:38:24.068Z,18.1
2017-11-08T12:39:32.152Z,18.0
2017-11-08T12:40:40.238Z,18.0
2017-11-08T12:41:48.346Z,18.0
2017-11-08T12:42:56.411Z,18.0
2017-11-08T12:44:04.489Z,18.0
2017-11-08T12:45:12.587Z,18.0
2017-11-08T12:46:20.657Z,18.0
2017-11-08T12:47:28.743Z,17.9
2017-11-08T12:48:36.827Z,18.0
2017-11-08T12:49:44.911Z,18.0
2017-11-08T12:50:52.995Z,17.9
2017-11-08T12:52:01.079Z,18.0
2017-11-08T12:53:09.161Z,17.9
2017-11-08T12:54:17.247Z,17.9
2017-11-08T12:55:25.330Z,17.9
2017-11-08T12:56:33.434Z,17.9
2017-11-08T12:57:41.497Z,17.9
2017-11-08T12:58:49.581Z,17.9
2017-11-08T12:59:57.666Z,17.9
2017-11-08T13:01:05.752Z,17.9
2017-11-08T13:02:13.835Z,17.9
2017-11-08T13:03:21.919Z,17.8
2017-11-08T13:04:30.001Z,17.9
2017-11-08T13:05:38.096Z,17.8
2017-11-08T13:06:46.170Z,17.8
2017-11-08T13:07:54.255Z,17.9
2017-11-08T13:09:02.339Z,17.8
2017-11-08T13:10:10.424Z,17.8
2017-11-08T13:11:18.508Z,17.8
2017-11-08T13:12:26.612Z,17.8
2017-11-08T13:13:34.932Z,17.8
2017-11-08T13:14:42.791Z,17.7
2017-11-08T13:15:50.868Z,17.8
2017-11-08T13:16:58.954Z,17.8
2017-11-08T13:18:07.041Z,17.7
2017-11-08T13:19:15.117Z,17.8
2017-11-08T13:20:23.203Z,17.7
2017-11-08T13:21:31.286Z,17.7
2017-11-08T13:22:39.370Z,17.7
2017-11-08T13:23:47.456Z,17.7
2017-11-08T13:24:55.538Z,17.7
2017-11-08T13:26:03.627Z,17.7
2017-11-08T13:27:11.707Z,17.7
2017-11-08T13:28:19.790Z,17.7
2017-11-08T13:29:27.876Z,17.8
2017-11-08T13:30:35.960Z,17.7
2017-11-08T13:31:44.044Z,17.7
2017-11-08T13:32:52.128Z,17.7
2017-11-08T13:34:00.212Z,17.7
2017-11-08T13:35:08.297Z,17.6
2017-11-08T13:36:16.379Z,17.6
2017-11-08T13:37:24.476Z,17.7
2017-11-08T13:38:32.556Z,17.6
2017-11-08T13:39:40.643Z,17.6
2017-11-08T13:40:48.739Z,17.6
2017-11-08T13:41:56.835Z,17.6
2017-11-08T13:43:04.894Z,17.6
2017-11-08T13:44:12.978Z,17.6
2017-11-08T13:45:21.065Z,17.5
2017-11-08T13:46:29.145Z,17.5
2017-11-08T13:47:37.246Z,17.5
2017-11-08T13:48:45.313Z,17.6
2017-11-08T13:49:53.397Z,17.6
2017-11-08T13:51:01.481Z,17.6
2017-11-08T13:52:09.563Z,17.5
2017-11-08T13:53:17.650Z,17.5
2017-11-08T13:54:25.732Z,17.5
2017-11-08T13:55:33.816Z,17.5
2017-11-08T13:56:41.899Z,17.5
2017-11-08T13:57:49.983Z,17.5
2017-11-08T13:58:58.067Z,17.5
2017-11-08T14:00:06.155Z,17.4
2017-11-08T14:01:14.237Z,17.4
2017-11-08T14:02:22.440Z,17.5
2017-11-08T14:03:30.522Z,17.6
2017-11-08T14:04:38.606Z,17.5
2017-11-08T14:05:46.698Z,17.5
2017-11-08T14:06:54.771Z,17.4
2017-11-08T14:08:02.867Z,17.4
2017-11-08T14:09:10.950Z,17.5
2017-11-08T14:10:19.035Z,17.5
2017-11-08T14:11:27.117Z,17.5
2017-11-08T14:12:35.235Z,17.5
2017-11-08T14:13:43.292Z,17.4
2017-11-08T14:14:51.377Z,17.5
2017-11-08T14:15:59.464Z,17.4
2017-11-08T14:17:07.546Z,17.4
2017-11-08T14:18:15.647Z,17.4
2017-11-08T14:19:23.717Z,17.4
2017-11-08T14:20:31.795Z,17.4
2017-11-08T14:21:39.879Z,17.4
2017-11-08T14:22:47.963Z,17.4
2017-11-08T14:23:56.045Z,17.3
2017-11-08T14:25:04.138Z,17.4
2017-11-08T14:26:12.221Z,17.3
2017-11-08T14:27:20.298Z,17.4
2017-11-08T14:28:28.385Z,17.4
2017-11-08T14:29:36.473Z,17.4
2017-11-08T14:30:44.551Z,17.3
2017-11-08T14:31:52.637Z,17.3
2017-11-08T14:33:00.715Z,17.3
2017-11-08T14:34:08.798Z,17.3
2017-11-08T14:35:16.885Z,17.3
2017-11-08T14:36:24.989Z,17.3
2017-11-08T14:37:33.068Z,17.3
2017-11-08T14:38:41.153Z,17.3
2017-11-08T14:39:49.237Z,17.3
2017-11-08T14:40:57.317Z,17.3
2017-11-08T14:42:05.403Z,17.3
2017-11-08T14:43:13.490Z,17.2
2017-11-08T14:44:21.568Z,17.2
2017-11-08T14:45:29.654Z,17.2
2017-11-08T14:46:37.740Z,17.2
2017-11-08T14:47:45.821Z,17.2
2017-11-08T14:48:53.936Z,17.2
2017-11-08T14:50:01.990Z,17.3
2017-11-08T14:51:10.073Z,17.2
2017-11-08T14:52:18.157Z,17.2
2017-11-08T14:53:26.241Z,17.1
2017-11-08T14:54:34.329Z,17.2
2017-11-08T14:55:42.409Z,17.3
2017-11-08T14:56:50.491Z,17.2
2017-11-08T14:57:58.584Z,17.2
2017-11-08T14:59:06.762Z,17.2
2017-11-08T15:00:14.745Z,17.2
2017-11-08T15:01:22.830Z,17.2
2017-11-08T15:02:30.910Z,17.2
2017-11-08T15:03:38.993Z,17.2
2017-11-08T15:04:47.076Z,17.1
2017-11-08T15:05:55.164Z,17.2
2017-11-08T15:07:03.241Z,17.2